Newark, South Dakota
Current Conditions -  °F | °C
As of 8:15 AM on Monday 20 Oct 2014 (Local Time) from KGWR Reporting Station
Clear Clear  
Wind Chill: 36°   Ceiling: Unl
Heat Index: 39°   Visibility: 10mi
Dew Point: 36°   Wind: 5mph
Humidity: 87%   Direction: 300°WNW
Pressure: 30.07"   Gusts: NA
Location:  45.8144°N, 97.7089°W
Report Text: KGWR 201315Z AUTO 30004KT 10SM CLR 04/02 A3007 RMK A01 P000
Loading
Personal Weather Stations






























Interactive Weather Map
Tropical Storm Tracking
New forecast layout! Learn more

10-Day Weather Forecast

Advertisements
Track Severe Weather on mobile